Norse Mersey — IBEN — position and weather

sailwx.info

Track history (hours):
 
Tides and Currents Weather Stations Pressure Air Temp Water Temp Dewpoint Dewpoint Depression Visibility Wind Speed Wind Dir Waves Ship Positions

Norse Mersey

Operator: Norse Merchant Ferries

Last reported at 2019-May-18 23:46 UTC. Time now 2019-May-20 16:49 UTC.
Position N 39°07' E 009°14'.

Length 175 m; draft 5 m.

Type: Passenger vessel. MMSI: 247026000.

Date/timePositionNaut miles runAvg speedWind from/ knotsBaromVisibWave heightAir tempDewpointWater temp
2019-May-18 23:46N 39°07' E 009°14'415.7
2019-May-18 23:30N 39°09' E 009°10'4 1.3
2019-May-18 20:15N 39°13' E 009°06'1 4.5
2019-May-18 20:00N 39°11' E 009°07'612.9
2019-May-18 19:30N 39°07' E 009°13'1 0.0
2019-May-17 01:07N 39°07' E 009°14'215.5
2019-May-17 01:00N 39°08' E 009°12'612.3
2019-May-17 00:30N 39°12' E 009°07'0 0.1
2019-May-16 20:02N 39°13' E 009°06'0 0.8
2019-May-16 19:59N 39°13' E 009°06'4 8.6
2019-May-16 19:30N 39°09' E 009°09'4 0.1
2019-May-15 01:27N 39°07' E 009°14'715.2
2019-May-15 01:00N 39°11' E 009°07'2 0.5
2019-May-14 20:28N 39°13' E 009°06'2 3.6
2019-May-14 20:00N 39°11' E 009°07'4 8.0
2019-May-14 19:30N 39°08' E 009°11'  
2019-May-12 01:47N 39°07' E 009°14'416.0
2019-May-12 01:30N 39°09' E 009°09'4 0.8
2019-May-11 20:31N 39°12' E 009°06'0 2.9
2019-May-11 20:30N 39°12' E 009°07'4 7.5
2019-May-11 20:01N 39°09' E 009°09'5 0.1
2019-May-10 00:49N 39°07' E 009°14'515.6
2019-May-10 00:30N 39°10' E 009°09'4 2.6
2019-May-09 23:06N 39°13' E 009°06'0 0.0
2019-May-09 20:45N 39°13' E 009°06'1 3.3
2019-May-09 20:30N 39°12' E 009°07'613.1
2019-May-09 20:00N 39°07' E 009°13'  
Track history (hours):
 
Tides and Currents Weather Stations Pressure Air Temp Water Temp Dewpoint Dewpoint Depression Visibility Wind Speed Wind Dir Waves Ship Positions

Norse Mersey

Operator: Norse Merchant Ferries

Last reported at 2019-May-18 23:46 UTC. Time now 2019-May-20 16:49 UTC.
Position N 39°07' E 009°14'.

Length 175 m; draft 5 m.

Type: Passenger vessel. MMSI: 247026000.

Date/timePositionNaut miles runAvg speedWind from/ knotsBaromVisibWave heightAir tempDewpointWater temp
2019-May-18 23:46N 39°07' E 009°14'415.7
2019-May-18 23:30N 39°09' E 009°10'4 1.3
2019-May-18 20:15N 39°13' E 009°06'1 4.5
2019-May-18 20:00N 39°11' E 009°07'612.9
2019-May-18 19:30N 39°07' E 009°13'1 0.0
2019-May-17 01:07N 39°07' E 009°14'215.5
2019-May-17 01:00N 39°08' E 009°12'612.3
2019-May-17 00:30N 39°12' E 009°07'0 0.1
2019-May-16 20:02N 39°13' E 009°06'0 0.8
2019-May-16 19:59N 39°13' E 009°06'4 8.6
2019-May-16 19:30N 39°09' E 009°09'4 0.1
2019-May-15 01:27N 39°07' E 009°14'715.2
2019-May-15 01:00N 39°11' E 009°07'2 0.5
2019-May-14 20:28N 39°13' E 009°06'2 3.6
2019-May-14 20:00N 39°11' E 009°07'4 8.0
2019-May-14 19:30N 39°08' E 009°11'  
2019-May-12 01:47N 39°07' E 009°14'416.0
2019-May-12 01:30N 39°09' E 009°09'4 0.8
2019-May-11 20:31N 39°12' E 009°06'0 2.9
2019-May-11 20:30N 39°12' E 009°07'4 7.5
2019-May-11 20:01N 39°09' E 009°09'5 0.1
2019-May-10 00:49N 39°07' E 009°14'515.6
2019-May-10 00:30N 39°10' E 009°09'4 2.6
2019-May-09 23:06N 39°13' E 009°06'0 0.0
2019-May-09 20:45N 39°13' E 009°06'1 3.3
2019-May-09 20:30N 39°12' E 009°07'613.1
2019-May-09 20:00N 39°07' E 009°13'  

Dump ship's entire track history